Time;durP1;ratioP1;P1;durP2;ratioP2;P2;SDS_P1;SDS_P2;PMS_P1;PMS_P2;Temp;Humidity;BMP_temperature;BMP_pressure;BME280_temperature;BME280_humidity;BME280_pressure;Samples;Min_cycle;Max_cycle;Signal;HPM_P1;HPM_P2
2021/09/23 00:00:05;;;;;;;0.10;0.10;;;11.60;99.90;;;;;;5083872;28;20272;-83
2021/09/23 00:03:33;;;;;;;0.10;0.10;;;11.70;99.90;;;;;;5092832;28;20204;-82
2021/09/23 00:05:27;;;;;;;0.20;0.20;;;11.80;99.90;;;;;;5082649;28;20814;-82
2021/09/23 00:07:57;;;;;;;1.00;0.20;;;11.80;99.90;;;;;;5086675;28;20195;-82
2021/09/23 00:10:28;;;;;;;0.30;0.23;;;11.80;99.90;;;;;;5090889;28;20189;-82
2021/09/23 00:12:55;;;;;;;0.30;0.30;;;11.80;99.90;;;;;;5089165;28;20219;-83
2021/09/23 00:15:22;;;;;;;0.30;0.30;;;11.90;99.90;;;;;;5090361;28;20203;-83
2021/09/23 00:17:51;;;;;;;0.20;0.20;;;11.80;99.90;;;;;;5086766;28;20730;-82
2021/09/23 00:20:25;;;;;;;0.10;0.10;;;11.70;99.90;;;;;;5085224;28;20177;-83
2021/09/23 00:22:51;;;;;;;0.20;0.20;;;11.80;99.90;;;;;;5087699;28;20273;-81
2021/09/23 00:25:17;;;;;;;0.40;0.40;;;11.80;99.90;;;;;;5083970;28;20663;-82
2021/09/23 00:27:42;;;;;;;0.93;0.47;;;11.80;99.90;;;;;;5091775;28;20208;-83
2021/09/23 00:30:09;;;;;;;1.27;0.33;;;11.80;99.90;;;;;;5080055;28;20194;-83
2021/09/23 00:32:35;;;;;;;0.10;0.10;;;11.80;99.90;;;;;;5088105;28;20200;-82
2021/09/23 00:35:01;;;;;;;0.77;0.30;;;11.80;99.90;;;;;;5089050;28;20180;-82
2021/09/23 00:37:26;;;;;;;0.37;0.37;;;11.90;99.90;;;;;;5086620;28;20219;-82
2021/09/23 00:39:52;;;;;;;0.20;0.20;;;11.90;99.90;;;;;;5087872;28;20173;-83
2021/09/23 00:42:18;;;;;;;0.13;0.13;;;11.90;99.90;;;;;;5085103;28;20202;-83
2021/09/23 00:44:56;;;;;;;0.30;0.30;;;11.90;99.90;;;;;;5088741;28;20211;-82
2021/09/23 00:47:22;;;;;;;0.20;0.20;;;11.90;99.90;;;;;;5088851;28;20180;-82
2021/09/23 00:49:48;;;;;;;0.30;0.30;;;11.90;99.90;;;;;;5088626;28;20704;-82
2021/09/23 00:52:14;;;;;;;0.53;0.40;;;11.90;99.90;;;;;;5087923;28;20264;-82
2021/09/23 00:54:39;;;;;;;0.33;0.23;;;11.90;99.90;;;;;;5089392;28;20177;-83
2021/09/23 00:57:05;;;;;;;0.50;0.50;;;11.80;99.90;;;;;;5087919;28;20191;-82
2021/09/23 00:59:30;;;;;;;0.10;0.10;;;11.80;99.90;;;;;;5085243;28;20185;-82
2021/09/23 01:01:56;;;;;;;0.67;0.23;;;11.60;99.90;;;;;;5097219;28;20204;-83
2021/09/23 01:04:21;;;;;;;0.17;0.17;;;11.60;99.90;;;;;;5089664;28;20212;-82
2021/09/23 01:06:50;;;;;;;0.23;0.23;;;11.60;99.90;;;;;;5093600;28;20176;-83
2021/09/23 01:09:16;;;;;;;0.47;0.47;;;11.60;99.90;;;;;;5095225;28;20271;-82
2021/09/23 01:11:42;;;;;;;2.70;0.40;;;11.50;99.90;;;;;;5090377;28;20674;-82
2021/09/23 01:14:07;;;;;;;0.40;0.40;;;11.40;99.90;;;;;;5092972;28;20234;-82
2021/09/23 01:16:33;;;;;;;0.17;0.17;;;11.00;99.90;;;;;;5092995;28;20180;-82
2021/09/23 01:18:59;;;;;;;0.20;0.20;;;10.90;99.90;;;;;;5088508;28;20189;-82
2021/09/23 01:21:25;;;;;;;0.10;0.10;;;11.00;99.90;;;;;;5085546;28;20213;-82
2021/09/23 01:23:50;;;;;;;1.10;0.30;;;11.00;99.90;;;;;;5091873;28;20677;-82
2021/09/23 01:26:26;;;;;;;0.10;0.10;;;11.00;99.90;;;;;;5093624;28;20203;-81
2021/09/23 01:28:57;;;;;;;0.20;0.20;;;11.00;99.90;;;;;;5090650;28;20199;-83
2021/09/23 01:31:23;;;;;;;0.13;0.13;;;11.00;99.90;;;;;;5083022;28;20215;-82
2021/09/23 01:33:49;;;;;;;0.10;0.10;;;11.10;99.90;;;;;;5093074;28;20212;-83
2021/09/23 01:36:15;;;;;;;0.30;0.30;;;11.10;99.90;;;;;;5089369;28;20180;-82
2021/09/23 01:38:41;;;;;;;0.23;0.23;;;11.20;99.90;;;;;;5100570;28;20184;-82
2021/09/23 01:41:06;;;;;;;0.20;0.20;;;11.20;99.90;;;;;;5089322;28;20203;-82
2021/09/23 01:43:32;;;;;;;0.10;0.10;;;11.30;99.90;;;;;;5092489;28;20191;-82
2021/09/23 01:45:58;;;;;;;0.20;0.20;;;11.00;99.90;;;;;;5084492;28;20219;-82
2021/09/23 01:48:24;;;;;;;0.57;0.57;;;11.00;99.90;;;;;;5088314;28;20183;-82
2021/09/23 01:50:49;;;;;;;0.10;0.10;;;11.00;99.90;;;;;;5085626;28;20181;-83
2021/09/23 01:53:15;;;;;;;0.20;0.20;;;11.00;99.90;;;;;;5086969;28;20214;-82
2021/09/23 01:55:40;;;;;;;0.50;0.37;;;11.00;99.90;;;;;;5094640;28;20274;-82
2021/09/23 01:58:07;;;;;;;0.30;0.30;;;11.00;99.90;;;;;;5096303;28;20231;-83
2021/09/23 02:00:33;;;;;;;0.20;0.20;;;11.00;99.90;;;;;;5093068;28;20186;-82
2021/09/23 02:02:58;;;;;;;0.20;0.20;;;11.10;99.90;;;;;;5077094;28;20215;-82
2021/09/23 02:05:24;;;;;;;0.10;0.10;;;11.20;99.90;;;;;;5090387;28;20185;-82
2021/09/23 02:07:50;;;;;;;0.40;0.40;;;11.30;99.90;;;;;;5093689;28;20184;-82
2021/09/23 02:10:15;;;;;;;0.10;0.10;;;11.30;99.90;;;;;;5090179;28;20188;-83
2021/09/23 02:12:41;;;;;;;0.30;0.30;;;11.30;99.90;;;;;;5090511;28;20550;-82
2021/09/23 02:15:07;;;;;;;0.33;0.30;;;11.30;99.90;;;;;;5098078;28;20206;-82
2021/09/23 02:17:33;;;;;;;0.10;0.10;;;11.30;99.90;;;;;;5093218;28;20175;-83
2021/09/23 02:19:59;;;;;;;0.10;0.10;;;11.30;99.90;;;;;;5109299;28;20183;-81
2021/09/23 02:22:25;;;;;;;0.20;0.20;;;11.20;99.90;;;;;;5092087;28;20584;-83
2021/09/23 02:24:51;;;;;;;1.40;1.30;;;11.20;99.90;;;;;;5088194;28;20265;-83
2021/09/23 02:27:17;;;;;;;0.57;0.57;;;11.20;99.90;;;;;;5091444;28;20692;-82
2021/09/23 02:29:43;;;;;;;0.40;0.40;;;11.20;99.90;;;;;;5094156;28;20184;-82
2021/09/23 02:32:09;;;;;;;0.20;0.20;;;11.20;99.90;;;;;;5096345;28;20208;-83
2021/09/23 02:34:35;;;;;;;0.27;0.23;;;11.20;99.90;;;;;;5094893;28;20545;-82
2021/09/23 02:37:01;;;;;;;0.13;0.13;;;11.10;99.90;;;;;;5087874;28;20172;-82
2021/09/23 02:39:27;;;;;;;0.13;0.13;;;11.00;99.90;;;;;;5090984;28;20187;-82
2021/09/23 02:41:53;;;;;;;0.27;0.27;;;11.00;99.90;;;;;;5091904;28;20201;-82
2021/09/23 02:44:19;;;;;;;0.13;0.13;;;11.00;99.90;;;;;;5092614;28;20187;-82
2021/09/23 02:46:44;;;;;;;1.97;0.73;;;11.10;99.90;;;;;;5095471;28;20187;-82
2021/09/23 02:49:10;;;;;;;0.30;0.30;;;11.00;99.90;;;;;;5092954;28;20279;-83
2021/09/23 02:51:36;;;;;;;0.37;0.37;;;11.00;99.90;;;;;;5084997;28;20213;-82
2021/09/23 02:54:02;;;;;;;0.20;0.20;;;11.00;99.90;;;;;;5090429;28;20187;-83
2021/09/23 02:56:28;;;;;;;0.10;0.10;;;11.00;99.90;;;;;;5097001;28;20181;-83
2021/09/23 02:58:54;;;;;;;0.23;0.23;;;11.00;99.90;;;;;;5092939;28;20314;-83
2021/09/23 03:01:21;;;;;;;0.20;0.20;;;11.00;99.90;;;;;;5078307;28;20204;-82
2021/09/23 03:03:47;;;;;;;0.20;0.20;;;11.00;99.90;;;;;;5078467;28;20180;-82
2021/09/23 03:06:13;;;;;;;0.40;0.40;;;11.00;99.90;;;;;;5093951;28;20668;-82
2021/09/23 03:08:38;;;;;;;0.20;0.20;;;11.00;99.90;;;;;;5085404;28;20180;-82
2021/09/23 03:11:04;;;;;;;0.50;0.17;;;10.90;99.90;;;;;;5093467;28;20287;-82
2021/09/23 03:13:30;;;;;;;0.20;0.20;;;10.90;99.90;;;;;;5090526;28;20577;-82
2021/09/23 03:15:55;;;;;;;0.20;0.20;;;11.00;99.90;;;;;;5085003;28;20180;-81
2021/09/23 03:18:21;;;;;;;0.10;0.10;;;11.00;99.90;;;;;;5086645;28;20203;-81
2021/09/23 03:20:48;;;;;;;0.27;0.27;;;11.00;99.90;;;;;;5090532;28;20556;-82
2021/09/23 03:23:14;;;;;;;0.10;0.10;;;10.90;99.90;;;;;;5085839;28;20184;-81
2021/09/23 03:25:40;;;;;;;0.37;0.20;;;10.90;99.90;;;;;;5088573;28;20186;-82
2021/09/23 03:28:06;;;;;;;1.50;1.40;;;10.90;99.90;;;;;;5082803;28;20279;-81
2021/09/23 03:30:34;;;;;;;0.20;0.20;;;10.80;99.90;;;;;;5089419;28;20292;-82
2021/09/23 03:33:03;;;;;;;0.93;0.60;;;10.90;99.90;;;;;;5082280;28;20296;-82
2021/09/23 03:35:28;;;;;;;0.40;0.20;;;10.80;99.90;;;;;;5077981;28;20178;-82
2021/09/23 03:37:54;;;;;;;0.17;0.10;;;10.70;99.90;;;;;;5092325;28;20179;-82
2021/09/23 03:40:20;;;;;;;0.63;0.10;;;10.70;99.90;;;;;;5085885;28;20176;-82
2021/09/23 03:42:46;;;;;;;0.20;0.20;;;10.70;99.90;;;;;;5078119;28;20616;-82
2021/09/23 03:45:12;;;;;;;0.20;0.20;;;10.70;99.90;;;;;;5084842;28;20210;-82
2021/09/23 03:47:37;;;;;;;0.30;0.30;;;10.70;99.90;;;;;;5085444;28;20190;-82
2021/09/23 03:50:04;;;;;;;0.17;0.17;;;10.60;99.90;;;;;;5075266;28;20184;-82
2021/09/23 03:52:30;;;;;;;0.93;0.63;;;10.60;99.90;;;;;;5081268;28;20277;-81
2021/09/23 03:54:56;;;;;;;0.10;0.10;;;10.60;99.90;;;;;;5082611;28;20179;-81
2021/09/23 03:57:21;;;;;;;0.20;0.20;;;10.60;99.90;;;;;;5089021;28;20213;-82
2021/09/23 03:59:47;;;;;;;0.33;0.30;;;10.60;99.90;;;;;;5084997;28;20187;-81
2021/09/23 04:02:13;;;;;;;0.30;0.30;;;10.60;99.90;;;;;;5084173;28;20585;-82
2021/09/23 04:04:39;;;;;;;0.43;0.20;;;10.60;99.90;;;;;;5087553;28;20186;-81
2021/09/23 04:07:05;;;;;;;0.30;0.30;;;10.50;99.90;;;;;;5087099;28;20183;-82
2021/09/23 04:09:31;;;;;;;0.20;0.10;;;10.50;99.90;;;;;;5091811;28;20206;-83
2021/09/23 04:11:57;;;;;;;0.30;0.30;;;10.50;99.90;;;;;;5077008;28;20211;-81
2021/09/23 04:14:22;;;;;;;0.10;0.10;;;10.50;99.90;;;;;;5066434;28;20234;-82
2021/09/23 04:16:50;;;;;;;0.20;0.20;;;10.50;99.90;;;;;;5084434;28;20177;-82
2021/09/23 04:19:16;;;;;;;0.17;0.17;;;10.50;99.90;;;;;;5082997;28;20182;-82
2021/09/23 04:21:42;;;;;;;0.30;0.20;;;10.40;99.90;;;;;;5076417;28;20263;-82
2021/09/23 04:24:08;;;;;;;0.50;0.50;;;10.40;99.90;;;;;;5084847;28;20649;-82
2021/09/23 04:26:33;;;;;;;0.50;0.50;;;10.40;99.90;;;;;;5079859;28;20271;-82
2021/09/23 04:28:59;;;;;;;0.37;0.37;;;10.50;99.90;;;;;;5062373;28;20181;-82
2021/09/23 04:31:25;;;;;;;0.13;0.10;;;10.50;99.90;;;;;;5079088;28;20598;-82
2021/09/23 04:33:50;;;;;;;0.30;0.30;;;10.40;99.90;;;;;;5088329;28;20208;-82
2021/09/23 04:36:16;;;;;;;0.10;0.10;;;10.40;99.90;;;;;;5099550;28;20598;-82
2021/09/23 04:38:41;;;;;;;0.27;0.27;;;10.40;99.90;;;;;;5098201;28;20185;-82
2021/09/23 04:41:07;;;;;;;0.17;0.17;;;10.40;99.90;;;;;;5093916;28;20276;-82
2021/09/23 04:43:33;;;;;;;0.13;0.13;;;10.40;99.90;;;;;;5091440;28;20204;-81
2021/09/23 04:45:59;;;;;;;0.50;0.30;;;10.40;99.90;;;;;;5090362;28;20552;-82
2021/09/23 04:48:25;;;;;;;0.20;0.20;;;10.40;99.90;;;;;;5095913;28;20200;-82
2021/09/23 04:50:50;;;;;;;0.10;0.10;;;10.40;99.90;;;;;;5098100;28;20186;-82
2021/09/23 04:53:16;;;;;;;0.10;0.10;;;10.40;99.90;;;;;;5079333;28;20201;-82
2021/09/23 04:55:41;;;;;;;0.47;0.43;;;10.40;99.90;;;;;;5076329;28;20315;-82
2021/09/23 04:58:07;;;;;;;0.10;0.10;;;10.40;99.90;;;;;;5078900;28;20645;-82
2021/09/23 05:00:33;;;;;;;0.10;0.10;;;10.40;99.90;;;;;;5078583;28;20188;-82
2021/09/23 05:02:58;;;;;;;0.33;0.33;;;10.30;99.90;;;;;;5084756;28;20210;-82
2021/09/23 05:05:24;;;;;;;0.20;0.20;;;10.30;99.90;;;;;;5106907;28;20192;-82
2021/09/23 05:07:50;;;;;;;1.17;0.60;;;10.40;99.90;;;;;;5090821;28;20188;-82
2021/09/23 05:10:15;;;;;;;0.20;0.20;;;10.40;99.90;;;;;;5085607;28;20188;-82
2021/09/23 05:12:41;;;;;;;0.30;0.30;;;10.30;99.90;;;;;;5094306;28;20215;-82
2021/09/23 05:15:08;;;;;;;0.40;0.40;;;10.20;99.90;;;;;;5086434;28;20179;-82
2021/09/23 05:17:33;;;;;;;0.13;0.13;;;10.20;99.90;;;;;;5087734;28;20203;-82
2021/09/23 05:19:59;;;;;;;0.40;0.40;;;10.20;99.90;;;;;;5087936;28;20645;-83
2021/09/23 05:22:27;;;;;;;0.20;0.20;;;10.30;99.90;;;;;;5092930;28;20199;-83
2021/09/23 05:24:54;;;;;;;0.27;0.27;;;10.20;99.90;;;;;;5092115;28;20638;-83
2021/09/23 05:27:20;;;;;;;1.40;0.50;;;10.30;99.90;;;;;;5088716;28;20203;-83
2021/09/23 05:29:45;;;;;;;0.20;0.20;;;10.30;99.90;;;;;;5088700;28;20557;-82
2021/09/23 05:32:11;;;;;;;0.73;0.70;;;10.30;99.90;;;;;;5111079;28;20208;-82
2021/09/23 05:34:37;;;;;;;0.20;0.20;;;10.40;99.90;;;;;;5090584;28;20192;-82
2021/09/23 05:37:03;;;;;;;0.40;0.40;;;10.50;99.90;;;;;;5080972;28;20189;-82
2021/09/23 05:39:28;;;;;;;1.60;1.17;;;10.50;99.90;;;;;;5089693;28;20703;-82
2021/09/23 05:41:54;;;;;;;0.87;0.50;;;10.60;99.90;;;;;;5078258;28;20198;-82
2021/09/23 05:44:23;;;;;;;0.20;0.20;;;10.60;99.90;;;;;;5091213;28;20178;-81
2021/09/23 05:46:53;;;;;;;0.23;0.20;;;10.50;99.90;;;;;;5094446;28;20222;-81
2021/09/23 05:49:20;;;;;;;0.10;0.10;;;10.50;99.90;;;;;;5097584;28;20187;-82
2021/09/23 05:51:46;;;;;;;0.30;0.30;;;10.50;99.90;;;;;;5070858;28;20789;-84
2021/09/23 05:54:12;;;;;;;0.30;0.30;;;10.60;99.90;;;;;;5078578;28;20194;-83
2021/09/23 05:56:38;;;;;;;0.27;0.13;;;10.70;99.90;;;;;;5073015;28;20178;-84
2021/09/23 05:59:04;;;;;;;1.13;0.83;;;10.70;99.90;;;;;;5074386;28;20190;-83
2021/09/23 06:01:30;;;;;;;0.17;0.17;;;10.70;99.90;;;;;;5091478;28;20201;-83
2021/09/23 06:03:55;;;;;;;0.30;0.20;;;10.70;99.90;;;;;;5087503;28;20234;-84
2021/09/23 06:06:21;;;;;;;0.30;0.30;;;10.80;99.90;;;;;;5082859;28;20198;-83
2021/09/23 06:08:46;;;;;;;0.20;0.20;;;10.90;99.90;;;;;;5078859;28;20205;-82
2021/09/23 06:11:12;;;;;;;2.53;0.50;;;11.10;99.90;;;;;;5075685;28;20355;-82
2021/09/23 06:13:38;;;;;;;0.30;0.30;;;11.10;99.90;;;;;;5078980;28;20205;-83
2021/09/23 06:16:04;;;;;;;0.10;0.10;;;11.20;99.90;;;;;;5093619;28;20180;-84
2021/09/23 06:18:30;;;;;;;0.20;0.20;;;11.30;99.90;;;;;;5081446;28;20192;-83
2021/09/23 06:20:55;;;;;;;0.40;0.40;;;11.50;99.90;;;;;;5086361;28;20264;-83
2021/09/23 06:23:21;;;;;;;0.20;0.20;;;11.60;99.90;;;;;;5082680;28;20184;-82
2021/09/23 06:25:47;;;;;;;0.50;0.40;;;11.80;99.90;;;;;;5074514;28;20181;-83
2021/09/23 06:28:12;;;;;;;0.30;0.30;;;11.80;99.90;;;;;;5084579;28;20207;-82
2021/09/23 06:30:38;;;;;;;0.60;0.60;;;11.80;99.90;;;;;;5076939;28;20203;-84
2021/09/23 06:33:05;;;;;;;0.50;0.50;;;11.80;99.90;;;;;;5082084;28;20264;-83
2021/09/23 06:35:30;;;;;;;0.50;0.50;;;11.80;99.90;;;;;;5090846;28;20685;-83
2021/09/23 06:37:56;;;;;;;0.40;0.40;;;11.80;99.90;;;;;;5077488;28;20249;-83
2021/09/23 06:40:22;;;;;;;0.53;0.53;;;11.90;99.90;;;;;;5077921;28;20679;-83
2021/09/23 06:42:48;;;;;;;0.10;0.10;;;12.00;99.90;;;;;;5086064;28;20200;-82
2021/09/23 06:45:14;;;;;;;0.10;0.10;;;12.10;99.90;;;;;;5086557;28;20244;-82
2021/09/23 06:47:40;;;;;;;1.23;0.20;;;12.30;99.90;;;;;;5083684;28;20319;-83
2021/09/23 06:50:06;;;;;;;0.40;0.40;;;12.40;99.90;;;;;;5083756;28;20205;-82
2021/09/23 06:52:31;;;;;;;0.10;0.10;;;12.70;99.90;;;;;;5079191;28;20211;-82
2021/09/23 06:54:57;;;;;;;0.10;0.10;;;12.80;99.90;;;;;;5078749;28;20180;-82
2021/09/23 06:57:23;;;;;;;0.30;0.30;;;12.90;99.90;;;;;;5087612;28;20318;-83
2021/09/23 06:59:48;;;;;;;2.30;1.07;;;13.00;99.90;;;;;;5083423;28;20202;-83
2021/09/23 07:02:14;;;;;;;0.37;0.37;;;13.20;99.90;;;;;;5081772;28;20218;-83
2021/09/23 07:04:40;;;;;;;0.73;0.73;;;13.30;99.90;;;;;;5076118;28;20216;-83
2021/09/23 07:07:05;;;;;;;0.30;0.30;;;13.40;99.90;;;;;;5074113;28;20191;-83
2021/09/23 07:09:31;;;;;;;0.40;0.40;;;13.50;99.90;;;;;;5088844;28;20186;-83
2021/09/23 07:11:58;;;;;;;0.63;0.60;;;13.70;99.90;;;;;;5089702;28;20212;-83
2021/09/23 07:14:24;;;;;;;0.60;0.60;;;13.80;99.90;;;;;;5088584;28;20196;-84
2021/09/23 07:16:50;;;;;;;0.10;0.10;;;13.90;99.90;;;;;;5075269;28;20189;-82
2021/09/23 07:19:15;;;;;;;2.27;0.63;;;14.00;99.90;;;;;;5105906;28;20180;-82
2021/09/23 07:21:41;;;;;;;0.63;0.37;;;14.20;99.90;;;;;;5089259;28;20670;-83
2021/09/23 07:24:07;;;;;;;0.17;0.17;;;14.20;99.90;;;;;;5087866;28;20191;-83
2021/09/23 07:26:33;;;;;;;0.27;0.27;;;14.30;99.90;;;;;;5072974;28;20219;-82
2021/09/23 07:28:59;;;;;;;0.20;0.20;;;14.30;99.90;;;;;;5081357;28;20184;-84
2021/09/23 07:31:26;;;;;;;0.33;0.33;;;14.40;99.90;;;;;;5088640;28;20205;-84
2021/09/23 07:33:52;;;;;;;0.30;0.30;;;14.60;99.90;;;;;;5084326;28;20302;-82
2021/09/23 07:36:18;;;;;;;0.50;0.40;;;14.80;99.90;;;;;;5090704;28;20172;-83
2021/09/23 07:38:44;;;;;;;0.23;0.23;;;14.70;99.90;;;;;;5076469;28;20174;-83
2021/09/23 07:41:10;;;;;;;0.40;0.40;;;14.50;99.90;;;;;;5091282;28;20593;-82
2021/09/23 07:43:35;;;;;;;0.20;0.20;;;14.70;99.90;;;;;;5084011;28;20189;-84
2021/09/23 07:46:01;;;;;;;0.40;0.30;;;14.80;99.90;;;;;;5081412;28;20184;-83
2021/09/23 07:48:28;;;;;;;0.33;0.33;;;15.00;99.90;;;;;;5087478;28;20185;-82
2021/09/23 07:50:54;;;;;;;0.33;0.33;;;15.10;99.90;;;;;;5077136;28;20222;-83
2021/09/23 07:53:20;;;;;;;0.23;0.23;;;15.30;99.90;;;;;;5081550;28;20228;-83
2021/09/23 07:55:46;;;;;;;0.57;0.40;;;15.30;99.90;;;;;;5077369;28;20647;-83
2021/09/23 07:58:13;;;;;;;0.30;0.30;;;15.40;99.90;;;;;;5074358;28;20293;-83
2021/09/23 08:00:38;;;;;;;1.60;0.77;;;15.50;99.90;;;;;;5094603;28;20240;-83
2021/09/23 08:03:04;;;;;;;0.30;0.30;;;15.60;99.90;;;;;;5089428;28;20656;-83
2021/09/23 08:05:30;;;;;;;0.10;0.10;;;15.70;99.90;;;;;;5084050;28;20265;-83
2021/09/23 08:07:57;;;;;;;0.83;0.43;;;15.80;99.90;;;;;;5085174;28;20178;-83
2021/09/23 08:10:23;;;;;;;0.30;0.30;;;15.90;99.90;;;;;;5070349;28;20191;-83
2021/09/23 08:12:49;;;;;;;0.50;0.50;;;16.00;99.90;;;;;;5087297;28;20285;-82
2021/09/23 08:15:14;;;;;;;0.60;0.60;;;16.10;99.90;;;;;;5093654;28;20174;-83
2021/09/23 08:17:40;;;;;;;0.43;0.43;;;16.00;99.90;;;;;;5082060;28;20205;-83
2021/09/23 08:20:07;;;;;;;0.20;0.20;;;16.10;99.90;;;;;;5086294;28;20223;-83
2021/09/23 08:22:33;;;;;;;0.50;0.50;;;16.20;99.90;;;;;;5085421;28;20268;-82
2021/09/23 08:24:59;;;;;;;0.47;0.47;;;16.30;99.90;;;;;;5085239;28;20593;-82
2021/09/23 08:27:24;;;;;;;0.87;0.47;;;16.20;99.90;;;;;;5071981;28;20277;-83
2021/09/23 08:29:50;;;;;;;0.50;0.50;;;16.40;99.90;;;;;;5074088;28;20185;-82
2021/09/23 08:32:19;;;;;;;0.23;0.17;;;16.60;99.90;;;;;;5071327;28;20325;-82
2021/09/23 08:34:48;;;;;;;0.23;0.23;;;16.70;99.90;;;;;;5075901;28;20174;-82
2021/09/23 08:37:15;;;;;;;0.30;0.30;;;16.90;99.90;;;;;;5088619;28;20197;-82
2021/09/23 08:39:40;;;;;;;0.10;0.10;;;17.20;99.90;;;;;;5089832;28;20184;-83
2021/09/23 08:42:06;;;;;;;0.73;0.70;;;17.40;99.90;;;;;;5082772;28;20206;-83
2021/09/23 08:44:32;;;;;;;1.03;0.73;;;17.50;99.90;;;;;;5071616;28;20650;-83
2021/09/23 08:46:57;;;;;;;1.47;0.50;;;17.50;99.90;;;;;;5065312;28;20267;-83
2021/09/23 08:49:23;;;;;;;1.40;0.40;;;17.70;99.90;;;;;;5072948;28;20200;-83
2021/09/23 08:51:49;;;;;;;1.13;0.37;;;17.80;99.90;;;;;;5088463;28;20215;-83
2021/09/23 08:54:17;;;;;;;1.10;1.00;;;18.00;99.90;;;;;;5090137;28;20247;-83
2021/09/23 08:56:43;;;;;;;0.53;0.53;;;18.00;99.90;;;;;;5081142;28;20189;-83
2021/09/23 08:59:09;;;;;;;0.67;0.67;;;18.10;99.90;;;;;;5087151;28;20216;-84
2021/09/23 09:01:42;;;;;;;0.47;0.40;;;18.30;99.90;;;;;;5079085;28;20215;-83
2021/09/23 09:04:08;;;;;;;0.60;0.60;;;18.40;99.90;;;;;;5074928;28;20558;-83
2021/09/23 09:06:33;;;;;;;0.53;0.53;;;18.40;99.90;;;;;;5091001;28;20245;-83
2021/09/23 09:09:02;;;;;;;0.47;0.47;;;18.30;99.90;;;;;;5085463;28;20180;-83
2021/09/23 09:11:27;;;;;;;0.27;0.27;;;18.40;99.90;;;;;;5084156;28;20204;-83
2021/09/23 09:13:53;;;;;;;1.63;0.70;;;18.60;99.90;;;;;;5079041;28;20299;-82
2021/09/23 09:16:25;;;;;;;0.63;0.40;;;18.80;99.90;;;;;;5076957;28;20168;-82
2021/09/23 09:18:54;;;;;;;0.77;0.53;;;18.90;99.90;;;;;;5078362;28;20669;-83
2021/09/23 09:21:22;;;;;;;0.60;0.60;;;19.20;99.90;;;;;;5076562;28;20193;-83
2021/09/23 09:24:04;;;;;;;0.60;0.60;;;19.40;99.90;;;;;;5076799;28;20543;-83
2021/09/23 09:26:42;;;;;;;1.83;0.70;;;19.60;99.90;;;;;;5099160;28;20193;-84
2021/09/23 09:29:10;;;;;;;0.50;0.50;;;19.80;99.90;;;;;;5079223;28;20646;-83
2021/09/23 09:31:43;;;;;;;1.70;0.90;;;20.00;99.90;;;;;;5087529;28;20246;-83
2021/09/23 09:34:08;;;;;;;0.60;0.50;;;20.00;99.90;;;;;;5089654;28;20195;-83
2021/09/23 09:36:40;;;;;;;1.10;0.73;;;19.80;99.90;;;;;;5086958;28;20580;-83
2021/09/23 09:39:13;;;;;;;0.50;0.50;;;19.90;99.90;;;;;;5089777;28;20645;-83
2021/09/23 09:41:40;;;;;;;2.20;2.00;;;20.00;99.90;;;;;;5088336;28;20218;-83
2021/09/23 09:44:08;;;;;;;1.20;1.00;;;20.00;99.90;;;;;;5093710;28;20204;-83
2021/09/23 09:46:46;;;;;;;1.20;1.10;;;20.20;99.90;;;;;;5088130;28;20181;-83
2021/09/23 09:49:12;;;;;;;1.20;0.50;;;20.20;99.90;;;;;;5083629;28;20184;-83
2021/09/23 09:51:43;;;;;;;0.67;0.30;;;20.20;99.90;;;;;;5087687;28;20206;-83
2021/09/23 09:54:12;;;;;;;0.30;0.30;;;20.40;99.90;;;;;;5090200;28;20258;-83
2021/09/23 09:56:39;;;;;;;0.50;0.50;;;20.50;99.90;;;;;;5098523;28;20187;-83
2021/09/23 09:59:12;;;;;;;0.40;0.40;;;20.70;99.90;;;;;;5088272;28;20180;-83
2021/09/23 10:01:40;;;;;;;1.03;0.93;;;20.80;99.90;;;;;;5088142;28;20196;-83
2021/09/23 10:04:07;;;;;;;0.40;0.40;;;20.90;99.90;;;;;;5080820;28;20278;-83
2021/09/23 10:06:33;;;;;;;1.70;1.33;;;21.00;99.90;;;;;;5062595;28;20185;-83
2021/09/23 10:08:58;;;;;;;0.73;0.57;;;21.10;99.90;;;;;;5071217;28;20519;-82
2021/09/23 10:11:25;;;;;;;0.93;0.93;;;20.90;99.90;;;;;;5068858;28;20212;-83
2021/09/23 10:13:53;;;;;;;1.27;0.70;;;21.00;99.90;;;;;;5075884;28;20216;-83
2021/09/23 10:16:20;;;;;;;0.40;0.40;;;21.00;99.90;;;;;;5085036;28;20220;-83
2021/09/23 10:18:45;;;;;;;3.90;0.67;;;21.10;99.90;;;;;;5090218;28;20182;-83
2021/09/23 10:21:11;;;;;;;0.27;0.27;;;21.10;99.90;;;;;;5093837;28;20210;-82
2021/09/23 10:23:40;;;;;;;0.20;0.20;;;21.10;99.90;;;;;;5090241;28;20238;-83
2021/09/23 10:26:13;;;;;;;0.37;0.37;;;21.10;99.90;;;;;;5080963;28;20192;-83
2021/09/23 10:28:45;;;;;;;0.27;0.23;;;21.20;99.90;;;;;;5075505;28;20554;-83
2021/09/23 10:31:11;;;;;;;0.50;0.23;;;21.30;99.90;;;;;;5089056;28;20212;-82
2021/09/23 10:33:40;;;;;;;0.53;0.30;;;21.50;99.90;;;;;;5078263;28;20262;-83
2021/09/23 10:36:08;;;;;;;0.40;0.30;;;21.60;99.90;;;;;;5091050;28;20177;-84
2021/09/23 10:38:34;;;;;;;0.37;0.30;;;21.70;99.90;;;;;;5079077;28;20181;-83
2021/09/23 10:41:01;;;;;;;0.40;0.40;;;21.80;99.90;;;;;;5088034;28;20231;-83
2021/09/23 10:43:26;;;;;;;0.47;0.47;;;21.90;99.90;;;;;;5075557;28;20192;-83
2021/09/23 10:45:53;;;;;;;0.30;0.30;;;22.00;99.90;;;;;;5084125;28;20566;-83
2021/09/23 10:48:20;;;;;;;0.20;0.20;;;22.10;99.90;;;;;;5081236;28;20201;-83
2021/09/23 10:50:47;;;;;;;0.63;0.60;;;22.30;99.90;;;;;;5092855;28;20219;-82
2021/09/23 10:53:13;;;;;;;0.40;0.40;;;22.30;99.90;;;;;;5096023;28;20212;-83
2021/09/23 10:55:41;;;;;;;0.20;0.20;;;22.30;99.90;;;;;;5084511;28;20192;-83
2021/09/23 10:58:09;;;;;;;0.63;0.63;;;22.40;99.90;;;;;;5088554;28;20204;-83
2021/09/23 11:00:35;;;;;;;0.77;0.57;;;22.30;99.90;;;;;;5090164;28;20188;-83
2021/09/23 11:03:06;;;;;;;0.40;0.40;;;22.30;99.90;;;;;;5090737;28;20249;-83
2021/09/23 11:05:31;;;;;;;0.50;0.50;;;22.40;99.90;;;;;;5104520;28;20188;-83
2021/09/23 11:08:05;;;;;;;0.43;0.30;;;22.50;99.90;;;;;;5085787;28;20213;-83
2021/09/23 11:10:31;;;;;;;3.10;0.93;;;22.50;99.90;;;;;;5094677;28;20195;-83
2021/09/23 11:12:58;;;;;;;0.33;0.33;;;22.50;99.90;;;;;;5086273;28;20204;-82
2021/09/23 11:15:27;;;;;;;0.67;0.40;;;22.70;99.90;;;;;;5088936;28;20181;-83
2021/09/23 11:17:55;;;;;;;0.60;0.60;;;22.80;99.90;;;;;;5088381;28;20208;-83
2021/09/23 11:20:23;;;;;;;0.37;0.37;;;22.90;99.90;;;;;;5082507;28;20212;-83
2021/09/23 11:22:59;;;;;;;0.30;0.30;;;22.90;99.90;;;;;;5097937;28;20218;-83
2021/09/23 11:25:27;;;;;;;0.97;0.53;;;23.00;99.90;;;;;;5084236;28;20207;-83
2021/09/23 11:27:54;;;;;;;0.93;0.40;;;22.90;99.90;;;;;;5073222;28;20201;-84
2021/09/23 11:30:22;;;;;;;0.63;0.63;;;22.90;99.90;;;;;;5080914;28;20566;-83
2021/09/23 11:32:55;;;;;;;0.40;0.40;;;22.80;99.90;;;;;;5087845;28;20577;-83
2021/09/23 11:35:24;;;;;;;0.50;0.50;;;22.80;99.90;;;;;;5078546;28;20686;-83
2021/09/23 11:37:50;;;;;;;0.10;0.10;;;22.90;99.90;;;;;;5086099;28;20184;-83
2021/09/23 11:40:23;;;;;;;0.27;0.27;;;23.00;99.90;;;;;;5088679;28;20641;-83
2021/09/23 11:42:49;;;;;;;0.30;0.30;;;23.10;99.90;;;;;;5078975;28;20208;-83
2021/09/23 11:45:22;;;;;;;0.30;0.30;;;23.10;99.90;;;;;;5085953;28;20188;-83
2021/09/23 11:47:53;;;;;;;0.33;0.33;;;23.10;99.90;;;;;;5078224;28;20557;-83
2021/09/23 11:50:32;;;;;;;1.40;0.50;;;23.10;99.90;;;;;;5082578;28;20218;-83
2021/09/23 11:53:04;;;;;;;0.50;0.50;;;23.10;99.90;;;;;;5066144;28;20208;-83
2021/09/23 11:55:30;;;;;;;0.30;0.30;;;23.40;99.90;;;;;;5077798;28;20184;-83
2021/09/23 11:58:13;;;;;;;0.40;0.40;;;23.70;99.90;;;;;;5077230;28;20172;-84
2021/09/23 12:00:44;;;;;;;0.20;0.20;;;23.70;99.90;;;;;;5075234;28;20215;-83
2021/09/23 12:03:11;;;;;;;0.33;0.33;;;23.70;99.90;;;;;;5092322;28;20184;-83
2021/09/23 12:05:38;;;;;;;0.20;0.20;;;23.70;99.90;;;;;;5084553;28;20189;-83
2021/09/23 12:08:15;;;;;;;0.67;0.40;;;23.90;99.90;;;;;;5082439;28;20194;-83
2021/09/23 12:11:02;;;;;;;0.27;0.27;;;24.00;99.90;;;;;;5090733;28;20203;-83
2021/09/23 12:13:36;;;;;;;0.30;0.20;;;24.00;99.90;;;;;;5077560;28;20291;-83
2021/09/23 12:16:05;;;;;;;0.33;0.30;;;24.20;99.90;;;;;;5080769;28;20561;-83
2021/09/23 12:18:31;;;;;;;0.93;0.50;;;24.30;99.90;;;;;;5072515;28;20542;-84
2021/09/23 12:21:00;;;;;;;2.23;0.33;;;24.40;99.90;;;;;;5088488;28;20180;-84
2021/09/23 12:23:26;;;;;;;1.53;0.57;;;24.50;99.90;;;;;;5074600;28;20229;-84
2021/09/23 12:26:10;;;;;;;0.20;0.20;;;24.60;99.90;;;;;;5081453;28;20218;-84
2021/09/23 12:28:54;;;;;;;0.40;0.40;;;24.60;99.90;;;;;;5075276;28;20792;-83
2021/09/23 12:31:35;;;;;;;0.20;0.20;;;24.70;99.90;;;;;;5079585;28;20208;-84
2021/09/23 12:34:04;;;;;;;0.50;0.40;;;24.80;99.90;;;;;;5065831;28;20201;-84
2021/09/23 12:36:41;;;;;;;0.20;0.20;;;24.80;99.90;;;;;;5079551;28;20173;-84
2021/09/23 12:39:18;;;;;;;0.63;0.63;;;24.90;99.90;;;;;;5077888;28;20186;-84
2021/09/23 12:41:53;;;;;;;0.50;0.30;;;24.90;99.90;;;;;;5075880;28;20193;-83
2021/09/23 12:44:24;;;;;;;0.70;0.43;;;25.10;99.90;;;;;;5079125;28;20611;-84
2021/09/23 12:47:14;;;;;;;0.53;0.50;;;25.10;99.90;;;;;;5081824;28;20200;-83